Time;durP1;ratioP1;P1;durP2;ratioP2;P2;SDS_P1;SDS_P2;PMS_P1;PMS_P2;Temp;Humidity;BMP_temperature;BMP_pressure;BME280_temperature;BME280_humidity;BME280_pressure;Samples;Min_cycle;Max_cycle;Signal;HPM_P1;HPM_P2
2023/07/07 00:00:47;;;;;;;0.10;0.10;;;14.60;99.90;;;;;;5093421;28;20442;-75
2023/07/07 00:03:12;;;;;;;0.10;0.10;;;14.60;99.90;;;;;;5097375;28;20185;-76
2023/07/07 00:05:42;;;;;;;0.10;0.10;;;14.60;99.90;;;;;;5090935;28;20534;-76
2023/07/07 00:08:07;;;;;;;0.10;0.10;;;14.60;99.90;;;;;;5092376;28;20264;-76
2023/07/07 00:10:33;;;;;;;0.10;0.10;;;14.60;99.90;;;;;;5097484;28;20533;-76
2023/07/07 00:12:59;;;;;;;0.10;0.10;;;14.60;99.90;;;;;;5098148;28;20688;-76
2023/07/07 00:15:24;;;;;;;0.10;0.10;;;14.50;99.90;;;;;;5087210;28;20192;-76
2023/07/07 00:17:50;;;;;;;0.10;0.10;;;14.50;99.90;;;;;;5086985;28;20193;-76
2023/07/07 00:20:16;;;;;;;0.10;0.10;;;14.40;99.90;;;;;;5098589;28;20185;-76
2023/07/07 00:22:42;;;;;;;0.10;0.10;;;14.40;99.90;;;;;;5094127;28;20449;-76
2023/07/07 00:25:09;;;;;;;0.10;0.10;;;14.40;99.90;;;;;;5089586;28;20542;-77
2023/07/07 00:27:34;;;;;;;0.10;0.10;;;14.40;99.90;;;;;;5088321;28;20227;-76
2023/07/07 00:30:02;;;;;;;0.10;0.10;;;14.40;99.90;;;;;;5102339;28;20435;-76
2023/07/07 00:32:30;;;;;;;0.10;0.10;;;14.40;99.90;;;;;;5068040;28;20233;-76
2023/07/07 00:34:55;;;;;;;0.10;0.10;;;14.40;99.90;;;;;;5069927;28;20447;-76
2023/07/07 00:37:21;;;;;;;0.10;0.10;;;14.40;99.90;;;;;;5089940;28;20446;-76
2023/07/07 00:39:47;;;;;;;0.10;0.10;;;14.20;99.90;;;;;;5085506;28;20232;-76
2023/07/07 00:42:12;;;;;;;0.10;0.10;;;14.30;99.90;;;;;;5099623;28;20184;-77
2023/07/07 00:45:09;;;;;;;0.10;0.10;;;14.20;99.90;;;;;;5093226;28;20546;-77
2023/07/07 00:47:40;;;;;;;0.10;0.10;;;14.20;99.90;;;;;;5087134;28;20824;-77
2023/07/07 00:50:09;;;;;;;0.10;0.10;;;14.20;99.90;;;;;;5084530;28;20447;-77
2023/07/07 00:52:36;;;;;;;0.20;0.20;;;14.10;99.90;;;;;;5067753;28;20464;-77
2023/07/07 00:55:02;;;;;;;0.10;0.10;;;14.10;99.90;;;;;;5082665;28;20458;-77
2023/07/07 00:57:28;;;;;;;0.10;0.10;;;14.10;99.90;;;;;;5066099;28;20440;-77
2023/07/07 00:59:53;;;;;;;0.10;0.10;;;14.10;99.90;;;;;;5082081;28;20446;-76
2023/07/07 01:02:24;;;;;;;0.10;0.10;;;14.00;99.90;;;;;;5104389;28;20176;-77
2023/07/07 01:04:52;;;;;;;0.10;0.10;;;13.90;99.90;;;;;;5085472;28;20249;-76
2023/07/07 01:07:28;;;;;;;0.10;0.10;;;13.90;99.90;;;;;;5065592;28;20433;-77
2023/07/07 01:09:53;;;;;;;0.10;0.10;;;13.90;99.90;;;;;;5085774;28;20802;-76
2023/07/07 01:12:19;;;;;;;0.10;0.10;;;13.80;99.90;;;;;;5111556;28;20446;-77
2023/07/07 01:14:45;;;;;;;0.10;0.10;;;13.80;99.90;;;;;;5105670;28;20178;-77
2023/07/07 01:17:51;;;;;;;0.10;0.10;;;13.80;99.90;;;;;;5095015;28;20185;-76
2023/07/07 01:20:30;;;;;;;0.10;0.10;;;13.80;99.90;;;;;;5085476;28;20477;-77
2023/07/07 01:23:17;;;;;;;0.10;0.10;;;13.80;99.90;;;;;;5079202;28;20454;-77
2023/07/07 01:26:05;;;;;;;0.10;0.10;;;13.80;99.90;;;;;;5086262;28;20830;-77
2023/07/07 01:29:00;;;;;;;0.10;0.10;;;13.70;99.90;;;;;;5063353;28;20471;-76
2023/07/07 01:31:32;;;;;;;0.10;0.10;;;13.70;99.90;;;;;;5068185;28;20443;-77
2023/07/07 01:33:59;;;;;;;0.10;0.10;;;13.70;99.90;;;;;;5088926;28;21184;-78
2023/07/07 01:36:27;;;;;;;0.20;0.20;;;13.70;99.90;;;;;;5065967;28;20613;-77
2023/07/07 01:38:52;;;;;;;0.10;0.10;;;13.70;99.90;;;;;;5080762;28;20881;-77
2023/07/07 01:41:30;;;;;;;0.10;0.10;;;13.70;99.90;;;;;;5068512;28;20443;-77
2023/07/07 01:44:21;;;;;;;0.10;0.10;;;13.70;99.90;;;;;;5088791;28;20242;-77
2023/07/07 01:47:00;;;;;;;0.10;0.10;;;13.60;99.90;;;;;;5083604;28;20435;-78
2023/07/07 01:49:36;;;;;;;0.20;0.20;;;13.50;99.90;;;;;;5088657;28;20930;-78
2023/07/07 01:52:10;;;;;;;0.10;0.10;;;13.30;99.90;;;;;;5067236;28;20439;-78
2023/07/07 01:54:43;;;;;;;0.10;0.10;;;13.40;99.90;;;;;;5087251;28;21228;-77
2023/07/07 01:57:11;;;;;;;0.10;0.10;;;13.40;99.90;;;;;;5086740;28;20443;-78
2023/07/07 01:59:39;;;;;;;0.10;0.10;;;13.40;99.90;;;;;;5090201;28;20430;-78
2023/07/07 02:02:05;;;;;;;0.10;0.10;;;13.40;99.90;;;;;;5103440;28;20441;-77
2023/07/07 02:04:30;;;;;;;0.10;0.10;;;13.30;99.90;;;;;;5085747;28;20957;-78
2023/07/07 02:06:56;;;;;;;0.10;0.10;;;13.30;99.90;;;;;;5087844;28;20258;-76
2023/07/07 02:09:21;;;;;;;0.10;0.10;;;13.30;99.90;;;;;;5082083;28;20553;-78
2023/07/07 02:11:47;;;;;;;0.10;0.10;;;13.30;99.90;;;;;;5088009;28;20184;-78
2023/07/07 02:14:12;;;;;;;0.10;0.10;;;13.30;99.90;;;;;;5087585;28;20319;-78
2023/07/07 02:16:38;;;;;;;0.10;0.10;;;13.30;99.90;;;;;;5096597;28;20801;-77
2023/07/07 02:19:03;;;;;;;0.10;0.10;;;13.30;99.90;;;;;;5092406;28;20204;-77
2023/07/07 02:21:29;;;;;;;0.10;0.10;;;13.30;99.90;;;;;;5086091;28;20185;-77
2023/07/07 02:23:54;;;;;;;0.10;0.10;;;13.30;99.90;;;;;;5085885;28;20200;-77
2023/07/07 02:26:20;;;;;;;0.10;0.10;;;13.20;99.90;;;;;;5088165;28;20276;-76
2023/07/07 02:28:46;;;;;;;0.10;0.10;;;13.20;99.90;;;;;;5086107;28;20300;-77
2023/07/07 02:31:12;;;;;;;0.10;0.10;;;13.20;99.90;;;;;;5102190;28;20184;-77
2023/07/07 02:33:38;;;;;;;0.10;0.10;;;13.20;99.90;;;;;;5093422;28;20478;-76
2023/07/07 02:36:06;;;;;;;0.10;0.10;;;13.20;99.90;;;;;;5091999;28;20442;-76
2023/07/07 02:38:33;;;;;;;0.10;0.10;;;13.10;99.90;;;;;;5090169;28;20231;-76
2023/07/07 02:40:59;;;;;;;0.10;0.10;;;13.20;99.90;;;;;;5092512;28;20499;-77
2023/07/07 02:43:25;;;;;;;0.10;0.10;;;13.30;99.90;;;;;;5094523;28;20446;-76
2023/07/07 02:45:51;;;;;;;0.10;0.10;;;13.20;99.90;;;;;;5092408;28;20663;-76
2023/07/07 02:48:19;;;;;;;0.10;0.10;;;13.20;99.90;;;;;;5075366;28;20467;-76
2023/07/07 02:50:53;;;;;;;0.10;0.10;;;13.10;99.90;;;;;;5113867;28;20462;-77
2023/07/07 02:53:18;;;;;;;0.10;0.10;;;13.00;99.90;;;;;;5075213;28;20985;-77
2023/07/07 02:55:45;;;;;;;0.10;0.10;;;12.90;99.90;;;;;;5094477;28;20435;-77
2023/07/07 02:58:11;;;;;;;0.10;0.10;;;12.90;99.90;;;;;;5112900;28;20192;-76
2023/07/07 03:00:37;;;;;;;0.10;0.10;;;13.00;99.90;;;;;;5073984;28;20469;-76
2023/07/07 03:03:02;;;;;;;0.10;0.10;;;12.90;99.90;;;;;;5086493;28;20197;-77
2023/07/07 03:05:31;;;;;;;0.10;0.10;;;13.00;99.90;;;;;;5080159;28;20652;-76
2023/07/07 03:07:56;;;;;;;0.10;0.10;;;13.10;99.90;;;;;;5114052;28;20181;-77
2023/07/07 03:10:22;;;;;;;0.20;0.20;;;13.10;99.90;;;;;;5072446;28;20442;-76
2023/07/07 03:12:47;;;;;;;0.10;0.10;;;13.10;99.90;;;;;;5098022;28;20261;-76
2023/07/07 03:15:13;;;;;;;0.20;0.20;;;12.90;99.90;;;;;;5091521;28;20586;-76
2023/07/07 03:17:39;;;;;;;0.20;0.20;;;12.90;99.90;;;;;;5090436;28;20196;-77
2023/07/07 03:20:07;;;;;;;0.10;0.10;;;12.90;99.90;;;;;;5078427;28;20177;-78
2023/07/07 03:22:34;;;;;;;0.10;0.10;;;13.00;99.90;;;;;;5091436;28;20446;-77
2023/07/07 03:25:00;;;;;;;0.00;0.00;;;13.00;99.90;;;;;;5098943;28;20442;-76
2023/07/07 03:27:26;;;;;;;0.00;0.00;;;13.10;99.90;;;;;;5111868;28;20702;-77
2023/07/07 03:29:51;;;;;;;0.10;0.10;;;13.10;99.90;;;;;;5091423;28;20184;-76
2023/07/07 03:32:17;;;;;;;0.10;0.10;;;13.00;99.90;;;;;;5068952;28;20741;-76
2023/07/07 03:34:43;;;;;;;0.10;0.10;;;13.10;99.90;;;;;;5089069;28;20196;-76
2023/07/07 03:37:09;;;;;;;0.10;0.10;;;13.10;99.90;;;;;;5090225;28;20223;-77
2023/07/07 03:39:35;;;;;;;0.10;0.10;;;13.20;99.90;;;;;;5097671;28;20473;-77
2023/07/07 03:42:01;;;;;;;0.10;0.10;;;13.10;99.90;;;;;;5095856;28;20295;-77
2023/07/07 03:44:26;;;;;;;0.10;0.10;;;13.10;99.90;;;;;;5071861;28;20606;-77
2023/07/07 03:46:52;;;;;;;0.10;0.10;;;13.10;99.90;;;;;;5091084;28;20859;-77
2023/07/07 03:49:17;;;;;;;0.10;0.10;;;13.20;99.90;;;;;;5071223;28;20249;-78
2023/07/07 03:51:43;;;;;;;0.10;0.10;;;13.10;99.90;;;;;;5090795;28;20937;-77
2023/07/07 03:54:08;;;;;;;0.20;0.20;;;13.20;99.90;;;;;;5095411;28;20222;-76
2023/07/07 03:56:34;;;;;;;0.10;0.10;;;13.20;99.90;;;;;;5073281;28;20537;-77
2023/07/07 03:58:59;;;;;;;0.10;0.10;;;13.10;99.90;;;;;;5090935;28;20188;-78
2023/07/07 04:01:25;;;;;;;0.20;0.20;;;13.10;99.90;;;;;;5089293;28;20204;-77
2023/07/07 04:03:50;;;;;;;0.10;0.10;;;13.10;99.90;;;;;;5095983;28;20191;-77
2023/07/07 04:06:18;;;;;;;0.10;0.10;;;13.10;99.90;;;;;;5091500;28;20267;-77
2023/07/07 04:08:44;;;;;;;0.20;0.20;;;13.10;99.90;;;;;;5073210;28;20408;-76
2023/07/07 04:11:12;;;;;;;0.20;0.20;;;13.10;99.90;;;;;;5096286;28;20979;-77
2023/07/07 04:13:39;;;;;;;0.10;0.10;;;13.20;99.90;;;;;;5085556;28;20696;-76
2023/07/07 04:16:14;;;;;;;0.20;0.20;;;13.20;99.90;;;;;;5090461;28;20480;-77
2023/07/07 04:18:41;;;;;;;0.10;0.10;;;13.20;99.90;;;;;;5089576;28;20451;-76
2023/07/07 04:21:10;;;;;;;0.10;0.10;;;13.20;99.90;;;;;;5097483;28;20491;-78
2023/07/07 04:23:39;;;;;;;0.10;0.10;;;13.20;99.90;;;;;;5093019;28;20482;-80
2023/07/07 04:26:05;;;;;;;0.10;0.10;;;13.30;99.90;;;;;;5090778;28;20443;-79
2023/07/07 04:28:31;;;;;;;0.20;0.20;;;13.30;99.90;;;;;;5088176;28;20471;-79
2023/07/07 04:30:58;;;;;;;0.10;0.10;;;13.30;99.90;;;;;;5084917;28;20450;-78
2023/07/07 04:33:25;;;;;;;0.10;0.10;;;13.30;99.90;;;;;;5062077;28;21035;-78
2023/07/07 04:35:59;;;;;;;0.10;0.10;;;13.30;99.90;;;;;;5071927;28;20446;-79
2023/07/07 04:38:32;;;;;;;0.10;0.10;;;13.40;99.90;;;;;;5085810;28;20476;-78
2023/07/07 04:41:04;;;;;;;0.10;0.10;;;13.40;99.90;;;;;;5065258;28;20523;-79
2023/07/07 04:43:30;;;;;;;0.20;0.20;;;13.40;99.90;;;;;;5074842;28;20446;-77
2023/07/07 04:45:56;;;;;;;0.10;0.10;;;13.40;99.90;;;;;;5092678;28;20448;-78
2023/07/07 04:48:21;;;;;;;0.10;0.10;;;13.50;99.90;;;;;;5103681;28;20530;-77
2023/07/07 04:50:47;;;;;;;0.10;0.10;;;13.50;99.90;;;;;;5089903;28;20248;-78
2023/07/07 04:53:12;;;;;;;0.10;0.10;;;13.50;99.90;;;;;;5087930;28;20231;-78
2023/07/07 04:55:45;;;;;;;0.10;0.10;;;13.60;99.90;;;;;;5094229;28;20269;-79
2023/07/07 04:58:11;;;;;;;0.10;0.10;;;13.60;99.90;;;;;;5066419;28;20192;-78
2023/07/07 05:00:36;;;;;;;0.10;0.10;;;13.70;99.90;;;;;;5083596;28;20439;-77
2023/07/07 05:03:03;;;;;;;0.10;0.10;;;13.80;99.90;;;;;;5101129;28;20211;-78
2023/07/07 05:05:28;;;;;;;0.10;0.10;;;13.80;99.90;;;;;;5089323;28;20238;-79
2023/07/07 05:07:54;;;;;;;0.10;0.10;;;13.90;99.90;;;;;;5074595;28;20446;-77
2023/07/07 05:10:19;;;;;;;0.10;0.10;;;14.00;99.90;;;;;;5068660;28;20279;-78
2023/07/07 05:12:45;;;;;;;0.10;0.10;;;14.10;99.90;;;;;;5065206;28;20209;-78
2023/07/07 05:15:10;;;;;;;0.10;0.10;;;14.20;99.90;;;;;;5084368;28;20193;-78
2023/07/07 05:17:36;;;;;;;0.10;0.10;;;14.30;99.90;;;;;;5069405;28;20682;-79
2023/07/07 05:20:01;;;;;;;0.13;0.13;;;14.40;99.90;;;;;;5088441;28;20271;-77
2023/07/07 05:22:27;;;;;;;0.10;0.10;;;14.50;99.90;;;;;;5097805;28;20180;-78
2023/07/07 05:24:52;;;;;;;0.10;0.10;;;14.60;99.90;;;;;;5086905;28;20287;-78
2023/07/07 05:27:18;;;;;;;0.10;0.10;;;14.70;99.90;;;;;;5072890;28;20223;-78
2023/07/07 05:29:43;;;;;;;0.10;0.10;;;14.80;99.90;;;;;;5081000;28;20682;-77
2023/07/07 05:32:09;;;;;;;0.10;0.10;;;14.90;99.90;;;;;;5070124;28;20242;-76
2023/07/07 05:34:35;;;;;;;0.10;0.10;;;15.00;99.90;;;;;;5065355;28;20193;-78
2023/07/07 05:37:00;;;;;;;0.10;0.10;;;15.10;99.90;;;;;;5085591;28;20196;-79
2023/07/07 05:39:25;;;;;;;0.10;0.10;;;15.20;99.90;;;;;;5088700;28;20228;-77
2023/07/07 05:41:51;;;;;;;0.10;0.10;;;15.30;99.90;;;;;;5071629;28;20691;-78
2023/07/07 05:44:16;;;;;;;0.10;0.10;;;15.40;99.90;;;;;;5087198;28;20185;-77
2023/07/07 05:46:43;;;;;;;0.10;0.10;;;15.60;99.90;;;;;;5076899;28;20211;-78
2023/07/07 05:49:08;;;;;;;0.10;0.10;;;15.70;99.90;;;;;;5110748;28;20378;-78
2023/07/07 05:51:34;;;;;;;0.10;0.10;;;15.90;99.90;;;;;;5106509;28;20941;-77
2023/07/07 05:53:59;;;;;;;0.10;0.10;;;16.10;99.90;;;;;;5073440;28;20223;-76
2023/07/07 05:56:25;;;;;;;0.10;0.10;;;16.20;99.90;;;;;;5088678;28;20739;-78
2023/07/07 05:58:53;;;;;;;0.10;0.10;;;16.30;99.90;;;;;;5091073;28;20195;-76
2023/07/07 06:01:18;;;;;;;0.10;0.10;;;16.30;99.90;;;;;;5090628;28;20573;-78
2023/07/07 06:03:45;;;;;;;0.10;0.10;;;16.30;99.90;;;;;;5060194;28;20447;-75
2023/07/07 06:06:11;;;;;;;0.10;0.10;;;16.30;99.90;;;;;;5085469;28;20615;-76
2023/07/07 06:08:37;;;;;;;0.10;0.10;;;16.30;99.90;;;;;;5063433;28;20449;-76
2023/07/07 06:11:03;;;;;;;0.10;0.10;;;16.30;99.90;;;;;;5086296;28;20538;-78
2023/07/07 06:13:28;;;;;;;0.10;0.10;;;16.40;99.90;;;;;;5084945;28;20585;-78
2023/07/07 06:15:54;;;;;;;0.10;0.10;;;16.50;99.90;;;;;;5093577;28;20192;-77
2023/07/07 06:18:21;;;;;;;0.10;0.10;;;16.50;99.90;;;;;;5099884;28;20196;-79
2023/07/07 06:21:07;;;;;;;0.10;0.10;;;16.50;99.90;;;;;;5066199;28;20454;-77
2023/07/07 06:23:33;;;;;;;0.10;0.10;;;16.70;99.90;;;;;;5064032;28;20867;-78
2023/07/07 06:25:58;;;;;;;0.10;0.10;;;16.90;99.90;;;;;;5084614;28;20526;-78
2023/07/07 06:28:24;;;;;;;0.10;0.10;;;17.00;99.90;;;;;;5093700;28;20268;-77
2023/07/07 06:30:50;;;;;;;0.10;0.10;;;17.10;99.90;;;;;;5086071;28;20192;-78
2023/07/07 06:33:18;;;;;;;0.10;0.10;;;17.20;99.90;;;;;;5085181;28;20209;-77
2023/07/07 06:35:44;;;;;;;0.10;0.10;;;17.40;99.90;;;;;;5080384;28;20451;-79
2023/07/07 06:38:10;;;;;;;0.10;0.10;;;17.50;99.90;;;;;;5092675;28;20470;-77
2023/07/07 06:40:35;;;;;;;0.10;0.10;;;17.50;99.90;;;;;;5088076;28;20458;-78
2023/07/07 06:43:04;;;;;;;0.10;0.10;;;17.70;99.90;;;;;;5084285;28;20559;-76
2023/07/07 06:45:31;;;;;;;0.10;0.10;;;17.70;99.90;;;;;;5066957;28;20189;-77
2023/07/07 06:47:57;;;;;;;0.10;0.10;;;17.80;99.90;;;;;;5086905;28;20486;-77
2023/07/07 06:50:35;;;;;;;0.10;0.10;;;18.00;99.90;;;;;;5087110;28;20446;-77
2023/07/07 06:53:00;;;;;;;0.10;0.10;;;18.20;99.90;;;;;;5087481;28;20620;-77
2023/07/07 06:55:26;;;;;;;0.10;0.10;;;18.30;99.90;;;;;;5090018;28;20525;-78
2023/07/07 06:57:52;;;;;;;0.10;0.10;;;18.30;99.90;;;;;;5082529;28;20327;-77
2023/07/07 07:00:18;;;;;;;0.10;0.10;;;18.40;99.90;;;;;;5084183;28;20204;-78
2023/07/07 07:02:44;;;;;;;0.10;0.00;;;18.50;99.90;;;;;;5100995;28;20224;-76
2023/07/07 07:05:10;;;;;;;0.10;0.10;;;18.50;99.90;;;;;;5067991;28;20588;-79
2023/07/07 07:07:35;;;;;;;0.10;0.10;;;18.70;99.90;;;;;;5086504;28;20442;-78
2023/07/07 07:10:02;;;;;;;0.10;0.10;;;18.80;99.90;;;;;;5084683;28;20675;-77
2023/07/07 07:12:29;;;;;;;0.10;0.10;;;19.00;99.90;;;;;;5086098;28;20498;-78
2023/07/07 07:14:54;;;;;;;0.10;0.10;;;19.00;99.90;;;;;;5087344;28;20459;-79
2023/07/07 07:17:21;;;;;;;0.10;0.10;;;19.10;99.90;;;;;;5085886;28;20443;-77
2023/07/07 07:19:47;;;;;;;0.10;0.10;;;19.20;99.90;;;;;;5084861;28;20192;-77
2023/07/07 07:22:13;;;;;;;0.10;0.00;;;19.30;99.90;;;;;;5063063;28;20824;-77
2023/07/07 07:24:38;;;;;;;0.10;0.10;;;19.40;99.90;;;;;;5109249;28;20195;-79
2023/07/07 07:27:04;;;;;;;0.10;0.10;;;19.50;99.90;;;;;;5084591;28;20648;-77
2023/07/07 07:29:30;;;;;;;0.10;0.10;;;19.50;99.90;;;;;;5091615;28;20185;-77
2023/07/07 07:31:56;;;;;;;0.10;0.10;;;19.70;99.90;;;;;;5082707;28;20495;-79
2023/07/07 07:34:31;;;;;;;0.10;0.10;;;19.90;99.90;;;;;;5072999;28;20213;-77
2023/07/07 07:36:59;;;;;;;0.10;0.00;;;20.00;99.90;;;;;;5086343;28;20191;-78
2023/07/07 07:39:25;;;;;;;0.10;0.10;;;20.10;99.90;;;;;;5093189;28;20471;-78
2023/07/07 07:41:53;;;;;;;0.10;0.10;;;20.20;99.90;;;;;;5087112;28;20449;-77
2023/07/07 07:44:19;;;;;;;0.10;0.00;;;20.30;99.90;;;;;;5086498;28;20515;-78
2023/07/07 07:46:46;;;;;;;0.10;0.10;;;20.30;99.90;;;;;;5090640;28;20451;-77
2023/07/07 07:49:13;;;;;;;0.10;0.10;;;20.30;99.90;;;;;;5090898;28;20839;-78
2023/07/07 07:51:39;;;;;;;0.10;0.00;;;20.30;99.90;;;;;;5088219;28;20507;-78
2023/07/07 07:54:10;;;;;;;0.10;0.10;;;20.50;99.90;;;;;;5065324;28;20507;-77
2023/07/07 07:56:37;;;;;;;0.10;0.10;;;20.60;99.90;;;;;;5076435;28;20902;-77
2023/07/07 07:59:03;;;;;;;0.10;0.00;;;20.70;99.90;;;;;;5071710;28;20439;-77
2023/07/07 08:01:29;;;;;;;0.10;0.10;;;20.90;99.90;;;;;;5085640;28;20435;-76
2023/07/07 08:03:54;;;;;;;0.10;0.10;;;20.90;99.90;;;;;;5088690;28;20455;-77
2023/07/07 08:06:20;;;;;;;0.10;0.00;;;21.10;99.90;;;;;;5090426;28;20189;-78
2023/07/07 08:08:46;;;;;;;0.10;0.00;;;20.90;99.90;;;;;;5072179;28;20477;-75
2023/07/07 08:11:13;;;;;;;0.10;0.00;;;21.10;99.90;;;;;;5090866;28;20274;-79
2023/07/07 08:13:39;;;;;;;0.10;0.00;;;21.30;99.90;;;;;;5091483;28;20225;-80
2023/07/07 08:16:05;;;;;;;0.10;0.00;;;21.40;99.90;;;;;;5090533;28;21203;-78
2023/07/07 08:18:30;;;;;;;0.10;0.00;;;21.40;99.90;;;;;;5089111;28;20193;-79
2023/07/07 08:20:56;;;;;;;0.10;0.00;;;21.50;99.90;;;;;;5087836;28;20262;-79
2023/07/07 08:23:21;;;;;;;0.10;0.10;;;21.70;99.90;;;;;;5073337;28;20193;-78
2023/07/07 08:25:48;;;;;;;0.10;0.00;;;21.80;99.90;;;;;;5091669;28;20181;-77
2023/07/07 08:28:14;;;;;;;0.10;0.00;;;21.70;99.90;;;;;;5090011;28;20681;-79
2023/07/07 08:30:40;;;;;;;0.10;0.00;;;21.80;99.90;;;;;;5088488;28;20447;-78
2023/07/07 08:33:05;;;;;;;0.10;0.00;;;21.80;99.90;;;;;;5085713;28;20339;-80
2023/07/07 08:35:31;;;;;;;0.10;0.00;;;21.70;99.90;;;;;;5090024;28;20250;-80
2023/07/07 08:37:56;;;;;;;0.10;0.00;;;21.90;99.90;;;;;;5085459;28;20635;-77
2023/07/07 08:40:24;;;;;;;0.10;0.00;;;22.20;99.90;;;;;;5089811;28;20200;-79
2023/07/07 08:42:51;;;;;;;0.10;0.00;;;22.50;99.90;;;;;;5085091;28;20189;-76
2023/07/07 08:45:20;;;;;;;0.10;0.00;;;22.20;99.90;;;;;;5071498;28;20435;-78
2023/07/07 08:47:54;;;;;;;0.10;0.00;;;21.70;99.90;;;;;;5088475;28;20453;-78
2023/07/07 08:50:37;;;;;;;0.10;0.00;;;21.80;99.90;;;;;;5089622;28;20549;-76
2023/07/07 08:53:20;;;;;;;0.10;0.00;;;22.10;99.90;;;;;;5079430;28;20707;-77
2023/07/07 08:56:05;;;;;;;0.10;0.00;;;21.80;99.90;;;;;;5086860;28;20435;-80
2023/07/07 08:58:53;;;;;;;0.10;0.00;;;22.30;99.90;;;;;;5086493;28;20459;-80
2023/07/07 09:01:41;;;;;;;0.10;0.00;;;22.50;99.90;;;;;;5085116;28;20453;-80
2023/07/07 09:04:56;;;;;;;0.10;0.00;;;22.80;99.90;;;;;;5083946;28;20442;-80
2023/07/07 09:08:00;;;;;;;0.10;0.00;;;22.50;99.90;;;;;;4991438;28;20455;-78
2023/07/07 09:10:44;;;;;;;0.10;0.00;;;22.20;99.90;;;;;;4994825;28;20447;-80
2023/07/07 09:13:26;;;;;;;0.10;0.00;;;21.90;99.90;;;;;;5085262;28;20470;-80
2023/07/07 09:16:05;;;;;;;0.10;0.10;;;21.70;99.90;;;;;;5070659;28;20428;-81
2023/07/07 09:18:39;;;;;;;0.10;0.00;;;21.60;99.90;;;;;;5088778;28;20443;-80
2023/07/07 09:21:11;;;;;;;0.10;0.00;;;21.60;99.90;;;;;;5085855;28;20525;-77
2023/07/07 09:23:40;;;;;;;0.10;0.00;;;21.90;99.90;;;;;;5086058;28;20438;-77
2023/07/07 09:26:18;;;;;;;0.10;0.00;;;21.70;99.90;;;;;;5083953;28;20427;-78
2023/07/07 09:28:47;;;;;;;0.10;0.00;;;21.90;99.90;;;;;;5079243;28;20435;-79
2023/07/07 09:31:23;;;;;;;0.10;0.00;;;21.80;99.90;;;;;;5087808;28;20445;-79
2023/07/07 09:33:49;;;;;;;0.10;0.00;;;22.40;99.90;;;;;;5089573;28;20482;-77
2023/07/07 09:36:16;;;;;;;0.10;0.00;;;22.80;99.90;;;;;;5086381;28;21236;-80
2023/07/07 09:38:58;;;;;;;0.10;0.00;;;23.20;99.90;;;;;;5082658;28;20489;-80
2023/07/07 09:42:01;;;;;;;0.10;0.00;;;23.40;99.90;;;;;;5081212;28;20440;-81
2023/07/07 09:44:37;;;;;;;0.10;0.00;;;22.90;99.90;;;;;;5081368;28;20807;-81
2023/07/07 09:47:18;;;;;;;0.10;0.00;;;23.00;99.90;;;;;;5082085;28;21002;-80
2023/07/07 09:50:01;;;;;;;0.10;0.00;;;23.50;99.90;;;;;;5069160;28;20508;-76
2023/07/07 09:52:42;;;;;;;0.10;0.00;;;23.90;99.90;;;;;;5085483;28;20446;-81
2023/07/07 09:55:17;;;;;;;0.10;0.00;;;24.30;99.90;;;;;;5065983;28;20507;-80
2023/07/07 09:57:54;;;;;;;0.10;0.00;;;24.50;99.90;;;;;;5084765;28;20455;-80
2023/07/07 10:00:20;;;;;;;0.10;0.00;;;24.80;99.90;;;;;;5066703;28;20431;-79
2023/07/07 10:02:46;;;;;;;0.10;0.00;;;24.60;99.90;;;;;;5087623;28;20482;-77
2023/07/07 10:05:19;;;;;;;0.10;0.00;;;24.50;99.90;;;;;;5065632;28;20875;-79
2023/07/07 10:07:45;;;;;;;0.10;0.00;;;23.90;99.90;;;;;;5079661;28;20178;-78
2023/07/07 10:10:16;;;;;;;0.10;0.00;;;24.00;99.90;;;;;;5086391;28;20910;-78
2023/07/07 10:12:42;;;;;;;0.10;0.00;;;24.40;99.90;;;;;;5087984;28;20475;-77
2023/07/07 10:15:44;;;;;;;0.10;0.00;;;24.50;99.90;;;;;;5070575;28;20450;-79
2023/07/07 10:18:20;;;;;;;0.10;0.00;;;24.50;99.90;;;;;;5088773;28;20504;-78
2023/07/07 10:20:46;;;;;;;0.10;0.00;;;24.70;99.90;;;;;;5089719;28;20473;-78
2023/07/07 10:23:13;;;;;;;0.10;0.00;;;25.10;99.90;;;;;;5087015;28;21009;-79
2023/07/07 10:25:40;;;;;;;0.10;0.00;;;25.10;99.90;;;;;;5085646;28;20661;-79
2023/07/07 10:28:11;;;;;;;0.10;0.00;;;25.40;99.90;;;;;;5084077;28;20549;-80
2023/07/07 10:30:37;;;;;;;0.10;0.00;;;25.70;99.90;;;;;;5083634;28;21000;-82
2023/07/07 10:33:03;;;;;;;0.10;0.00;;;26.00;99.90;;;;;;5067908;28;20514;-80
2023/07/07 10:35:31;;;;;;;0.10;0.00;;;25.90;99.90;;;;;;5085172;28;20481;-80
2023/07/07 10:38:02;;;;;;;0.10;0.00;;;26.20;99.90;;;;;;5086265;28;20269;-79
2023/07/07 10:40:27;;;;;;;0.10;0.00;;;26.30;99.90;;;;;;5086909;28;20475;-80
2023/07/07 10:42:54;;;;;;;0.10;0.00;;;26.10;99.90;;;;;;5080372;28;20478;-77
2023/07/07 10:45:21;;;;;;;0.10;0.00;;;26.50;99.90;;;;;;5081414;28;20181;-82
2023/07/07 10:47:46;;;;;;;0.10;0.00;;;26.50;99.90;;;;;;5070830;28;20442;-83
2023/07/07 10:50:15;;;;;;;0.10;0.00;;;26.60;99.90;;;;;;5052386;28;20423;-83
2023/07/07 10:52:54;;;;;;;0.10;0.00;;;26.90;99.90;;;;;;5069396;28;20240;-80
2023/07/07 10:55:45;;;;;;;0.10;0.00;;;27.30;99.90;;;;;;5082328;28;20482;-79
2023/07/07 10:58:43;;;;;;;0.10;0.00;;;27.30;99.90;;;;;;5084502;28;20434;-78
2023/07/07 11:01:50;;;;;;;0.10;0.00;;;27.40;99.90;;;;;;5082860;28;20525;-79
2023/07/07 11:04:25;;;;;;;0.10;0.00;;;27.40;98.60;;;;;;5084157;28;20607;-80
2023/07/07 11:07:15;;;;;;;0.10;0.00;;;27.50;98.20;;;;;;5086328;28;21144;-80
2023/07/07 11:10:10;;;;;;;0.10;0.00;;;27.70;99.90;;;;;;5071219;28;20451;-80
2023/07/07 11:13:01;;;;;;;0.10;0.00;;;28.30;99.80;;;;;;5079767;28;20752;-83
2023/07/07 11:15:41;;;;;;;0.10;0.00;;;28.00;98.90;;;;;;5089473;28;20458;-79
2023/07/07 11:18:29;;;;;;;0.10;0.00;;;28.50;98.50;;;;;;5070950;28;20501;-77
2023/07/07 11:21:22;;;;;;;0.10;0.00;;;28.70;95.60;;;;;;5104270;28;20485;-81
2023/07/07 11:24:10;;;;;;;0.10;0.00;;;28.60;95.70;;;;;;5074280;28;20481;-80
2023/07/07 11:27:05;;;;;;;0.10;0.00;;;28.20;99.90;;;;;;5089436;28;20463;-77
2023/07/07 11:29:42;;;;;;;0.10;0.00;;;28.40;99.50;;;;;;5090547;28;20474;-77
2023/07/07 11:32:27;;;;;;;0.10;0.10;;;29.20;99.00;;;;;;5085243;28;20527;-78
2023/07/07 11:35:09;;;;;;;0.10;0.00;;;29.10;95.90;;;;;;5086944;28;20443;-76
2023/07/07 11:37:58;;;;;;;0.10;0.00;;;28.90;95.30;;;;;;5089755;28;20439;-77
2023/07/07 11:40:26;;;;;;;0.10;0.00;;;28.50;96.40;;;;;;5074252;28;20455;-78
2023/07/07 11:43:25;;;;;;;0.00;0.00;;;28.20;98.60;;;;;;5073409;28;20449;-78
2023/07/07 11:46:02;;;;;;;0.00;0.00;;;28.10;98.00;;;;;;5088650;28;20439;-77
2023/07/07 11:48:42;;;;;;;0.00;0.00;;;28.10;97.00;;;;;;5087883;28;20524;-78
2023/07/07 11:51:45;;;;;;;0.00;0.00;;;28.40;98.40;;;;;;5084077;28;20550;-78
2023/07/07 11:54:41;;;;;;;0.00;0.00;;;29.60;96.90;;;;;;5092255;28;20488;-77
2023/07/07 11:57:33;;;;;;;0.10;0.00;;;29.80;95.60;;;;;;5082552;28;20434;-80
2023/07/07 12:00:22;;;;;;;0.10;0.00;;;29.20;97.40;;;;;;5037321;28;20443;-80
2023/07/07 12:02:57;;;;;;;0.10;0.00;;;28.90;98.30;;;;;;5078904;28;20435;-78
2023/07/07 12:05:35;;;;;;;0.10;0.00;;;29.90;96.00;;;;;;5060333;28;20808;-77
2023/07/07 12:08:12;;;;;;;0.10;0.00;;;29.60;95.10;;;;;;5080738;28;20965;-78
2023/07/07 12:10:48;;;;;;;0.10;0.00;;;30.00;93.60;;;;;;5077993;28;20466;-80
2023/07/07 12:13:25;;;;;;;0.10;0.00;;;29.50;96.40;;;;;;5078793;28;22542;-79
2023/07/07 12:16:01;;;;;;;0.10;0.00;;;29.40;97.20;;;;;;5081617;28;20702;-80
2023/07/07 12:18:34;;;;;;;0.10;0.00;;;29.40;94.50;;;;;;5069127;28;20522;-77
2023/07/07 12:21:12;;;;;;;0.10;0.00;;;30.10;93.60;;;;;;5067461;28;20507;-77
2023/07/07 12:23:45;;;;;;;0.10;0.00;;;30.40;93.40;;;;;;5071772;28;20977;-79
2023/07/07 12:26:19;;;;;;;0.10;0.00;;;30.00;93.60;;;;;;5096233;28;20450;-81
2023/07/07 12:28:49;;;;;;;0.00;0.00;;;30.50;92.00;;;;;;5093243;28;20444;-79
2023/07/07 12:31:19;;;;;;;0.00;0.00;;;29.90;92.60;;;;;;5074641;28;20450;-79
2023/07/07 12:33:44;;;;;;;0.00;0.00;;;29.80;92.10;;;;;;5086077;28;24054;-78
2023/07/07 12:36:13;;;;;;;0.00;0.00;;;28.50;93.90;;;;;;5082843;28;20435;-80
2023/07/07 12:38:39;;;;;;;0.00;0.00;;;28.20;95.80;;;;;;5090297;28;20310;-78
2023/07/07 12:41:15;;;;;;;0.00;0.00;;;28.00;96.90;;;;;;5071015;28;20455;-79
2023/07/07 12:43:51;;;;;;;0.07;0.00;;;28.10;98.90;;;;;;5081623;28;20276;-79
2023/07/07 12:46:22;;;;;;;0.10;0.00;;;29.00;99.80;;;;;;5088174;28;20434;-76
2023/07/07 12:48:50;;;;;;;0.10;0.00;;;29.60;98.80;;;;;;5083261;28;20453;-77
2023/07/07 12:51:17;;;;;;;0.10;0.00;;;30.10;98.00;;;;;;5086929;28;20526;-77
2023/07/07 12:53:53;;;;;;;0.10;0.00;;;30.40;96.60;;;;;;5086583;28;20511;-77
2023/07/07 12:56:23;;;;;;;0.10;0.00;;;30.50;95.60;;;;;;5087567;28;20484;-77
2023/07/07 12:58:52;;;;;;;0.10;0.00;;;30.00;95.30;;;;;;5092231;28;20456;-77
2023/07/07 13:01:18;;;;;;;0.10;0.00;;;30.40;95.50;;;;;;5089744;28;20431;-76
2023/07/07 13:04:06;;;;;;;0.10;0.00;;;29.10;95.90;;;;;;5070159;28;20469;-79
2023/07/07 13:06:32;;;;;;;0.00;0.00;;;28.50;98.70;;;;;;5079739;28;20183;-79